Time;durP1;ratioP1;P1;durP2;ratioP2;P2;SDS_P1;SDS_P2;PMS_P1;PMS_P2;Temp;Humidity;BMP_temperature;BMP_pressure;BME280_temperature;BME280_humidity;BME280_pressure;Samples;Min_cycle;Max_cycle;Signal;HPM_P1;HPM_P2
2021/09/06 00:01:04;;;;;;;4.20;2.20;;;27.80;99.90;;;;;;4159549;28;20056;-66
2021/09/06 00:03:09;;;;;;;8.07;2.67;;;27.90;99.90;;;;;;4161800;28;20080;-66
2021/09/06 00:05:14;;;;;;;4.50;1.92;;;28.00;99.90;;;;;;4160468;28;20045;-66
2021/09/06 00:07:18;;;;;;;3.65;2.15;;;28.00;99.90;;;;;;4162107;28;20041;-66
2021/09/06 00:09:23;;;;;;;7.40;5.00;;;28.00;99.90;;;;;;4161838;28;20038;-66
2021/09/06 00:11:27;;;;;;;8.82;4.53;;;28.00;99.90;;;;;;4161627;28;20459;-66
2021/09/06 00:13:32;;;;;;;5.88;3.17;;;28.10;99.90;;;;;;4159176;28;20523;-66
2021/09/06 00:15:37;;;;;;;3.78;2.67;;;27.90;99.90;;;;;;4162203;28;20310;-66
2021/09/06 00:17:42;;;;;;;2.35;1.90;;;27.80;99.90;;;;;;4161859;28;20048;-66
2021/09/06 00:19:46;;;;;;;3.40;1.90;;;27.80;99.90;;;;;;4161392;28;20143;-66
2021/09/06 00:21:51;;;;;;;2.40;1.30;;;27.70;99.90;;;;;;4160884;28;20057;-66
2021/09/06 00:23:56;;;;;;;2.35;1.17;;;27.80;99.90;;;;;;4160373;28;20568;-67
2021/09/06 00:26:00;;;;;;;3.53;1.85;;;27.90;99.90;;;;;;4159250;28;20400;-67
2021/09/06 00:28:05;;;;;;;3.03;1.70;;;27.90;99.90;;;;;;4159965;28;20069;-67
2021/09/06 00:30:10;;;;;;;4.25;1.85;;;27.80;99.90;;;;;;4157231;28;20068;-67
2021/09/06 00:32:15;;;;;;;3.10;1.63;;;27.80;99.90;;;;;;4161246;28;20042;-67
2021/09/06 00:34:19;;;;;;;3.15;1.60;;;27.90;99.90;;;;;;4158886;28;20038;-66
2021/09/06 00:36:24;;;;;;;3.38;1.40;;;28.10;99.90;;;;;;4161139;28;20049;-66
2021/09/06 00:38:28;;;;;;;2.65;1.30;;;28.00;99.90;;;;;;4161023;28;20511;-67
2021/09/06 00:40:33;;;;;;;3.42;0.98;;;28.10;99.90;;;;;;4160697;28;20537;-67
2021/09/06 00:42:38;;;;;;;3.83;1.05;;;28.00;99.90;;;;;;4156985;28;20033;-67
2021/09/06 00:44:42;;;;;;;1.95;1.20;;;28.00;99.90;;;;;;4159273;28;20128;-67
2021/09/06 00:46:47;;;;;;;2.75;1.25;;;27.90;99.90;;;;;;4158589;28;20504;-67
2021/09/06 00:48:52;;;;;;;2.03;1.10;;;28.00;99.90;;;;;;4157594;28;20535;-67
2021/09/06 00:50:57;;;;;;;2.20;0.90;;;27.90;99.90;;;;;;4157156;28;20381;-67
2021/09/06 00:53:02;;;;;;;4.20;1.38;;;27.90;99.90;;;;;;4158936;28;20076;-67
2021/09/06 00:55:06;;;;;;;2.70;2.08;;;27.90;99.90;;;;;;4159834;28;20037;-66
2021/09/06 00:57:13;;;;;;;2.55;1.27;;;28.00;99.90;;;;;;4157347;28;20045;-66
2021/09/06 00:59:18;;;;;;;9.45;2.63;;;28.00;99.90;;;;;;4162226;28;20107;-66
2021/09/06 01:01:23;;;;;;;2.70;1.80;;;28.00;99.90;;;;;;4157260;28;20072;-67
2021/09/06 01:03:28;;;;;;;4.28;2.85;;;28.10;99.90;;;;;;4159729;28;20472;-68
2021/09/06 01:05:45;;;;;;;5.78;3.55;;;28.20;99.90;;;;;;4157922;28;20693;-67
2021/09/06 01:07:57;;;;;;;2.65;2.20;;;28.40;99.90;;;;;;4159670;28;20049;-67
2021/09/06 01:10:14;;;;;;;7.63;1.80;;;28.30;99.90;;;;;;4158764;28;20052;-67
2021/09/06 01:12:31;;;;;;;2.67;1.60;;;28.10;99.90;;;;;;4158078;28;20206;-67
2021/09/06 01:14:36;;;;;;;4.60;2.75;;;28.20;99.90;;;;;;4158680;28;20051;-67
2021/09/06 01:16:41;;;;;;;5.95;1.80;;;28.40;99.90;;;;;;4158172;28;20048;-67
2021/09/06 01:18:48;;;;;;;2.67;1.92;;;28.50;99.90;;;;;;4158049;28;20132;-67
2021/09/06 01:20:52;;;;;;;2.78;1.83;;;28.50;99.90;;;;;;4158987;28;20513;-67
2021/09/06 01:23:09;;;;;;;2.28;1.80;;;28.50;99.90;;;;;;4147934;28;20577;-67
2021/09/06 01:25:27;;;;;;;2.53;1.63;;;28.50;99.90;;;;;;4159962;28;20050;-67
2021/09/06 01:27:32;;;;;;;2.63;1.70;;;28.70;99.90;;;;;;4157471;28;20055;-67
2021/09/06 01:29:37;;;;;;;3.08;1.58;;;28.70;99.90;;;;;;4158655;28;20061;-67
2021/09/06 01:31:43;;;;;;;2.28;1.30;;;28.80;99.90;;;;;;4157035;28;20372;-67
2021/09/06 01:33:47;;;;;;;3.20;1.40;;;28.70;99.90;;;;;;4159320;28;20130;-67
2021/09/06 01:35:54;;;;;;;3.00;1.35;;;28.60;99.90;;;;;;4157706;28;20500;-67
2021/09/06 01:37:58;;;;;;;2.67;1.40;;;28.60;99.90;;;;;;4158058;28;20598;-67
2021/09/06 01:40:04;;;;;;;2.75;1.50;;;28.70;99.90;;;;;;4191536;28;20052;-66
2021/09/06 01:42:08;;;;;;;4.05;1.88;;;28.70;99.90;;;;;;4158405;28;20054;-67
2021/09/06 01:44:13;;;;;;;2.55;1.83;;;28.90;99.90;;;;;;4157887;28;20412;-67
2021/09/06 01:46:18;;;;;;;1.50;1.38;;;28.80;99.90;;;;;;4157495;28;20427;-67
2021/09/06 01:48:22;;;;;;;3.00;1.75;;;28.90;99.90;;;;;;4157908;28;20526;-67
2021/09/06 01:50:27;;;;;;;4.20;1.70;;;28.90;99.90;;;;;;4157447;28;20037;-67
2021/09/06 01:52:32;;;;;;;2.03;1.50;;;29.00;99.90;;;;;;4158150;28;20661;-67
2021/09/06 01:54:39;;;;;;;3.35;1.42;;;29.20;99.90;;;;;;4157540;28;20046;-67
2021/09/06 01:56:45;;;;;;;2.30;1.50;;;29.30;99.90;;;;;;4155416;28;20037;-67
2021/09/06 01:58:51;;;;;;;2.13;1.70;;;29.40;99.90;;;;;;4156921;28;20041;-67
2021/09/06 02:00:56;;;;;;;4.07;1.70;;;29.20;99.90;;;;;;4173752;28;20114;-67
2021/09/06 02:03:10;;;;;;;2.53;1.92;;;29.00;99.90;;;;;;4157140;28;20060;-67
2021/09/06 02:05:21;;;;;;;3.60;2.22;;;29.00;99.90;;;;;;4157073;28;20080;-67
2021/09/06 02:07:28;;;;;;;4.78;2.22;;;29.20;99.90;;;;;;4157601;28;20045;-67
2021/09/06 02:09:34;;;;;;;3.38;2.25;;;29.20;99.90;;;;;;4158094;28;20049;-67
2021/09/06 02:11:43;;;;;;;3.35;1.90;;;29.10;99.90;;;;;;4156865;28;20079;-67
2021/09/06 02:13:48;;;;;;;1.88;1.60;;;29.40;99.90;;;;;;4156769;28;20452;-67
2021/09/06 02:15:55;;;;;;;2.28;2.03;;;29.60;99.90;;;;;;4157373;28;20049;-67
2021/09/06 02:18:03;;;;;;;5.57;2.85;;;29.60;99.90;;;;;;4157403;28;20061;-67
2021/09/06 02:20:10;;;;;;;4.15;2.80;;;29.60;99.90;;;;;;4157716;28;20053;-67
2021/09/06 02:22:15;;;;;;;4.82;2.50;;;29.50;99.90;;;;;;4157424;28;20311;-67
2021/09/06 02:24:28;;;;;;;3.88;2.80;;;29.60;99.90;;;;;;4157447;28;20069;-67
2021/09/06 02:26:46;;;;;;;4.68;2.70;;;29.60;99.90;;;;;;4157096;28;20152;-67
2021/09/06 02:28:51;;;;;;;4.22;2.63;;;29.70;99.90;;;;;;4157301;28;20054;-67
2021/09/06 02:30:57;;;;;;;9.25;3.25;;;29.60;99.90;;;;;;4159033;28;20119;-67
2021/09/06 02:33:20;;;;;;;5.90;2.95;;;29.40;99.90;;;;;;4157137;28;20052;-67
2021/09/06 02:35:43;;;;;;;5.40;3.25;;;29.40;99.90;;;;;;4156839;28;20484;-67
2021/09/06 02:37:48;;;;;;;5.00;2.60;;;29.50;99.90;;;;;;4150460;28;20132;-67
2021/09/06 02:39:52;;;;;;;4.85;3.15;;;29.60;99.90;;;;;;4156843;28;20478;-67
2021/09/06 02:42:01;;;;;;;7.10;2.60;;;29.70;99.90;;;;;;4158378;28;20144;-67
2021/09/06 02:44:09;;;;;;;6.68;2.92;;;29.80;99.90;;;;;;4157247;28;20045;-67
2021/09/06 02:46:14;;;;;;;3.30;2.65;;;29.90;99.90;;;;;;4157369;28;20053;-67
2021/09/06 02:48:18;;;;;;;3.95;2.60;;;30.00;99.90;;;;;;4154946;28;20404;-67
2021/09/06 02:50:23;;;;;;;2.78;2.15;;;29.90;99.90;;;;;;4157713;28;20504;-67
2021/09/06 02:52:31;;;;;;;4.70;2.05;;;29.70;99.90;;;;;;4157179;28;20120;-67
2021/09/06 02:54:37;;;;;;;2.22;1.92;;;29.80;99.90;;;;;;4156963;28;20455;-67
2021/09/06 02:56:43;;;;;;;4.57;2.13;;;29.90;99.90;;;;;;4156360;28;20523;-67
2021/09/06 02:58:53;;;;;;;3.15;2.45;;;30.00;99.90;;;;;;4156815;28;20059;-67
2021/09/06 03:01:04;;;;;;;6.20;2.30;;;30.00;99.90;;;;;;4156991;28;20046;-66
2021/09/06 03:03:11;;;;;;;4.80;3.10;;;30.10;99.90;;;;;;4157163;28;20140;-66
2021/09/06 03:05:18;;;;;;;6.05;3.05;;;30.20;99.90;;;;;;4171446;28;20118;-67
2021/09/06 03:07:27;;;;;;;8.13;2.85;;;30.20;99.90;;;;;;4188979;28;20199;-67
2021/09/06 03:09:31;;;;;;;3.90;2.60;;;30.10;99.90;;;;;;4157842;28;20157;-67
2021/09/06 03:11:38;;;;;;;4.78;2.30;;;30.10;99.90;;;;;;4155615;28;20056;-67
2021/09/06 03:13:43;;;;;;;3.75;2.00;;;30.10;99.90;;;;;;4156918;28;20401;-67
2021/09/06 03:15:48;;;;;;;3.10;2.28;;;30.10;99.90;;;;;;4157219;28;20076;-67
2021/09/06 03:17:53;;;;;;;5.63;2.10;;;30.20;99.90;;;;;;4156165;28;20038;-67
2021/09/06 03:20:11;;;;;;;4.03;2.10;;;30.20;99.90;;;;;;4157422;28;20503;-67
2021/09/06 03:22:18;;;;;;;3.92;1.95;;;30.20;99.90;;;;;;4152054;28;20460;-68
2021/09/06 03:24:23;;;;;;;3.88;2.00;;;30.40;99.90;;;;;;4155730;28;20140;-68
2021/09/06 03:26:29;;;;;;;4.90;2.10;;;30.60;99.90;;;;;;4157525;28;20482;-68
2021/09/06 03:28:34;;;;;;;4.13;2.42;;;30.80;99.90;;;;;;4154317;28;20559;-68
2021/09/06 03:30:39;;;;;;;4.22;2.30;;;30.70;99.90;;;;;;4155526;28;20326;-67
2021/09/06 03:32:45;;;;;;;4.07;2.42;;;30.60;99.90;;;;;;4169602;28;20483;-67
2021/09/06 03:34:49;;;;;;;3.00;2.33;;;30.60;99.90;;;;;;4157057;28;20038;-67
2021/09/06 03:36:53;;;;;;;3.20;2.60;;;30.70;99.90;;;;;;4157544;28;20050;-67
2021/09/06 03:38:58;;;;;;;4.78;2.38;;;30.70;99.90;;;;;;4155548;28;20040;-67
2021/09/06 03:41:07;;;;;;;3.25;2.40;;;30.70;99.90;;;;;;4156592;28;20096;-67
2021/09/06 03:43:14;;;;;;;6.43;2.63;;;30.70;99.90;;;;;;4154733;28;20144;-67
2021/09/06 03:45:19;;;;;;;2.55;2.35;;;30.80;99.90;;;;;;4152044;28;20104;-67
2021/09/06 03:47:27;;;;;;;3.90;2.55;;;30.90;99.90;;;;;;4169976;28;20057;-67
2021/09/06 03:49:35;;;;;;;4.78;2.70;;;30.70;99.90;;;;;;4156065;28;20064;-67
2021/09/06 03:51:42;;;;;;;4.57;2.45;;;30.50;99.90;;;;;;4155711;28;20381;-67
2021/09/06 03:53:50;;;;;;;28.60;4.18;;;30.50;99.90;;;;;;4155948;28;20056;-67
2021/09/06 03:55:58;;;;;;;5.63;2.78;;;30.70;99.90;;;;;;4156265;28;20045;-67
2021/09/06 03:58:08;;;;;;;7.72;3.72;;;30.70;99.90;;;;;;4156012;28;20037;-67
2021/09/06 04:00:14;;;;;;;6.78;3.13;;;30.90;99.90;;;;;;4156060;28;20554;-67
2021/09/06 04:02:25;;;;;;;5.25;2.90;;;31.00;99.90;;;;;;4152737;28;20073;-67
2021/09/06 04:04:31;;;;;;;4.40;2.95;;;31.00;99.90;;;;;;4153249;28;20448;-66
2021/09/06 04:06:38;;;;;;;3.25;2.38;;;31.10;99.90;;;;;;4155986;28;20069;-67
2021/09/06 04:08:47;;;;;;;3.40;2.28;;;31.30;99.90;;;;;;4155768;28;20069;-66
2021/09/06 04:10:53;;;;;;;2.50;2.10;;;31.30;99.90;;;;;;4153673;28;20302;-66
2021/09/06 04:13:01;;;;;;;4.18;2.38;;;31.00;99.90;;;;;;4167760;28;20036;-66
2021/09/06 04:15:09;;;;;;;3.45;2.30;;;30.80;99.90;;;;;;4155341;28;21012;-66
2021/09/06 04:17:13;;;;;;;2.22;1.95;;;30.80;99.90;;;;;;4155140;28;20352;-66
2021/09/06 04:19:20;;;;;;;2.92;1.80;;;30.70;99.90;;;;;;4155013;28;20049;-66
2021/09/06 04:21:25;;;;;;;4.03;2.25;;;30.90;99.90;;;;;;4153954;28;20573;-65
2021/09/06 04:23:29;;;;;;;3.35;2.17;;;31.10;99.90;;;;;;4155422;28;20404;-65
2021/09/06 04:25:37;;;;;;;2.50;2.20;;;31.20;99.90;;;;;;4169832;28;20080;-66
2021/09/06 04:27:41;;;;;;;2.67;2.33;;;31.30;99.90;;;;;;4154562;28;20060;-65
2021/09/06 04:29:50;;;;;;;4.85;2.30;;;31.40;99.90;;;;;;4153126;28;20049;-65
2021/09/06 04:31:54;;;;;;;2.22;2.00;;;31.50;99.90;;;;;;4155108;28;20056;-65
2021/09/06 04:33:58;;;;;;;2.17;1.98;;;31.30;99.90;;;;;;4154543;28;20054;-65
2021/09/06 04:36:06;;;;;;;2.88;2.03;;;31.40;99.90;;;;;;4153541;28;20131;-65
2021/09/06 04:38:16;;;;;;;4.45;2.50;;;31.60;99.90;;;;;;4156217;28;20103;-64
2021/09/06 04:40:20;;;;;;;3.95;2.20;;;31.80;99.90;;;;;;4154891;28;20053;-65
2021/09/06 04:42:28;;;;;;;4.15;2.20;;;31.90;99.90;;;;;;4152082;28;20088;-65
2021/09/06 04:44:34;;;;;;;3.45;2.00;;;32.00;99.90;;;;;;4154333;28;20617;-65
2021/09/06 04:46:41;;;;;;;6.00;2.05;;;32.00;99.90;;;;;;4169289;28;20051;-64
2021/09/06 04:48:48;;;;;;;2.65;2.00;;;31.80;99.90;;;;;;4154774;28;20088;-64
2021/09/06 04:50:55;;;;;;;2.00;1.80;;;31.60;99.90;;;;;;4154997;28;20034;-64
2021/09/06 04:53:03;;;;;;;2.53;1.60;;;31.60;99.90;;;;;;4154682;28;20049;-65
2021/09/06 04:55:09;;;;;;;2.65;1.70;;;31.60;99.90;;;;;;4153445;28;20652;-64
2021/09/06 04:57:16;;;;;;;2.00;1.80;;;31.80;99.90;;;;;;4152118;28;20049;-64
2021/09/06 04:59:22;;;;;;;4.22;1.63;;;31.90;99.90;;;;;;4152765;28;20511;-65
2021/09/06 05:01:28;;;;;;;2.08;1.50;;;32.00;99.90;;;;;;4152651;28;20113;-65
2021/09/06 05:03:34;;;;;;;1.80;1.25;;;32.10;99.90;;;;;;4151217;28;20585;-64
2021/09/06 05:05:42;;;;;;;2.45;1.50;;;32.10;99.90;;;;;;4152368;28;20525;-64
2021/09/06 05:07:50;;;;;;;2.90;1.67;;;32.10;99.90;;;;;;4151293;28;20053;-64
2021/09/06 05:09:56;;;;;;;3.35;1.30;;;32.20;99.90;;;;;;4153360;28;20057;-65
2021/09/06 05:12:05;;;;;;;3.85;1.75;;;32.20;99.90;;;;;;4155041;28;20042;-65
2021/09/06 05:14:13;;;;;;;3.72;1.38;;;32.10;99.90;;;;;;4152355;28;20052;-65
2021/09/06 05:16:19;;;;;;;2.05;1.20;;;32.20;99.90;;;;;;4154424;28;20415;-65
2021/09/06 05:18:25;;;;;;;1.27;0.93;;;32.30;99.90;;;;;;4174519;28;20502;-64
2021/09/06 05:20:32;;;;;;;1.33;1.20;;;32.40;99.70;;;;;;4158077;28;20484;-65
2021/09/06 05:22:38;;;;;;;3.67;1.10;;;32.30;99.90;;;;;;4163461;28;20066;-66
2021/09/06 05:24:45;;;;;;;1.55;1.00;;;32.30;99.90;;;;;;4185339;28;20502;-65
2021/09/06 05:26:51;;;;;;;1.30;1.10;;;32.20;99.90;;;;;;4159200;28;20452;-65
2021/09/06 05:28:58;;;;;;;1.77;1.08;;;32.20;99.90;;;;;;4161671;28;20041;-66
2021/09/06 05:31:07;;;;;;;4.93;1.00;;;32.40;99.90;;;;;;4160649;28;20049;-65
2021/09/06 05:33:15;;;;;;;1.30;0.75;;;32.50;99.90;;;;;;4148974;28;20045;-65
2021/09/06 05:35:23;;;;;;;0.82;0.50;;;32.50;99.90;;;;;;4158796;28;20045;-64
2021/09/06 05:37:29;;;;;;;3.35;0.98;;;32.40;99.90;;;;;;4159517;28;20045;-65
2021/09/06 05:39:36;;;;;;;2.03;0.70;;;32.40;99.90;;;;;;4160230;28;20639;-64
2021/09/06 05:41:44;;;;;;;1.65;0.52;;;32.50;99.90;;;;;;4158827;28;20392;-65
2021/09/06 05:43:53;;;;;;;0.60;0.50;;;32.60;99.80;;;;;;4154751;28;20479;-65
2021/09/06 05:46:02;;;;;;;1.55;0.50;;;32.60;99.40;;;;;;4156892;28;20069;-65
2021/09/06 05:48:09;;;;;;;1.08;0.57;;;32.70;99.20;;;;;;4155145;28;20049;-66
2021/09/06 05:50:18;;;;;;;1.38;0.43;;;32.80;98.70;;;;;;4157574;28;20416;-65
2021/09/06 05:52:42;;;;;;;1.08;0.50;;;32.80;98.60;;;;;;4157844;28;20041;-66
2021/09/06 05:54:47;;;;;;;3.70;0.70;;;32.90;99.20;;;;;;4159097;28;20538;-66
2021/09/06 05:56:53;;;;;;;1.92;0.68;;;33.00;99.20;;;;;;4157460;28;20041;-65
2021/09/06 05:59:01;;;;;;;1.45;0.50;;;33.00;98.90;;;;;;4157368;28;20377;-65
2021/09/06 06:01:07;;;;;;;1.20;0.57;;;33.00;98.90;;;;;;4157554;28;20349;-65
2021/09/06 06:03:14;;;;;;;0.75;0.68;;;33.10;99.30;;;;;;4102478;28;20073;-65
2021/09/06 06:05:20;;;;;;;1.42;0.57;;;33.00;99.10;;;;;;4098251;28;58347;-65
2021/09/06 06:07:25;;;;;;;0.85;0.70;;;33.00;98.60;;;;;;4129521;28;20054;-64
2021/09/06 06:09:32;;;;;;;0.85;0.60;;;33.10;98.30;;;;;;4121886;28;20358;-64
2021/09/06 06:11:41;;;;;;;1.40;0.70;;;33.10;98.30;;;;;;4124825;28;20579;-65
2021/09/06 06:14:05;;;;;;;2.85;0.80;;;33.10;97.90;;;;;;4124460;28;20205;-64
2021/09/06 06:16:10;;;;;;;0.68;0.50;;;33.00;98.00;;;;;;4122012;28;20039;-64
2021/09/06 06:18:15;;;;;;;0.88;0.60;;;33.00;98.00;;;;;;4124358;28;20054;-66
2021/09/06 06:20:20;;;;;;;2.05;0.50;;;33.10;97.60;;;;;;4139569;28;20049;-65
2021/09/06 06:22:47;;;;;;;0.40;0.40;;;33.10;97.40;;;;;;4125691;28;20410;-65
2021/09/06 06:25:08;;;;;;;0.80;0.50;;;33.20;97.00;;;;;;4140649;28;20107;-65
2021/09/06 06:27:18;;;;;;;0.65;0.50;;;33.20;96.90;;;;;;4139463;28;20100;-65
2021/09/06 06:29:23;;;;;;;0.73;0.50;;;33.30;96.40;;;;;;4156187;28;20091;-65
2021/09/06 06:31:27;;;;;;;1.83;0.45;;;33.30;96.30;;;;;;4125785;28;20575;-65
2021/09/06 06:33:33;;;;;;;0.50;0.40;;;33.40;96.30;;;;;;4155546;28;20045;-65
2021/09/06 06:35:41;;;;;;;1.50;0.60;;;33.50;96.20;;;;;;4118650;28;20054;-66
2021/09/06 06:37:45;;;;;;;1.48;0.75;;;33.50;96.50;;;;;;4155028;28;20045;-66
2021/09/06 06:39:50;;;;;;;1.17;0.60;;;33.60;96.60;;;;;;4125253;28;20042;-65
2021/09/06 06:41:55;;;;;;;1.20;0.57;;;33.80;96.20;;;;;;4122999;28;20120;-65
2021/09/06 06:44:01;;;;;;;1.58;0.50;;;33.80;95.90;;;;;;4123393;28;20093;-65
2021/09/06 06:46:08;;;;;;;0.50;0.40;;;33.90;95.60;;;;;;4139469;28;20049;-65
2021/09/06 06:48:12;;;;;;;1.27;0.40;;;33.90;95.20;;;;;;4122619;28;20129;-64
2021/09/06 06:50:17;;;;;;;0.70;0.40;;;33.90;94.80;;;;;;4123086;28;20085;-65
2021/09/06 06:52:22;;;;;;;0.43;0.43;;;33.70;94.20;;;;;;4125170;28;20453;-65
2021/09/06 06:54:27;;;;;;;0.40;0.40;;;33.80;94.60;;;;;;4122934;28;20043;-65
2021/09/06 06:56:32;;;;;;;1.15;0.55;;;33.80;94.60;;;;;;4123210;28;20046;-65
2021/09/06 06:58:45;;;;;;;0.68;0.30;;;34.00;94.20;;;;;;4123724;28;20484;-65
2021/09/06 07:00:52;;;;;;;2.17;0.40;;;34.00;94.30;;;;;;4122717;28;20050;-65
2021/09/06 07:02:57;;;;;;;0.70;0.40;;;34.10;93.60;;;;;;4123088;28;20096;-65
2021/09/06 07:05:02;;;;;;;4.90;0.50;;;34.10;91.70;;;;;;4124144;28;20078;-64
2021/09/06 07:07:11;;;;;;;0.88;0.68;;;33.80;92.90;;;;;;4124075;28;20040;-65
2021/09/06 07:09:17;;;;;;;0.85;0.60;;;33.90;92.60;;;;;;4121336;28;20054;-65
2021/09/06 07:11:25;;;;;;;1.83;0.60;;;33.90;93.30;;;;;;4154887;28;20041;-65
2021/09/06 07:13:34;;;;;;;2.75;0.63;;;34.00;93.30;;;;;;4153838;28;20045;-64
2021/09/06 07:15:41;;;;;;;1.67;0.70;;;34.10;93.20;;;;;;4122774;28;20046;-65
2021/09/06 07:17:48;;;;;;;1.33;0.80;;;34.30;93.00;;;;;;4138509;28;20045;-65
2021/09/06 07:19:53;;;;;;;0.70;0.50;;;34.30;92.40;;;;;;4137878;28;20132;-66
2021/09/06 07:21:59;;;;;;;0.68;0.43;;;34.30;92.10;;;;;;4121849;28;20133;-66
2021/09/06 07:24:07;;;;;;;0.73;0.30;;;34.30;91.90;;;;;;4123460;28;20054;-66
2021/09/06 07:26:11;;;;;;;2.38;0.60;;;34.40;92.80;;;;;;4124055;28;20053;-65
2021/09/06 07:28:16;;;;;;;1.85;0.50;;;34.50;92.20;;;;;;4122850;28;20039;-65
2021/09/06 07:30:21;;;;;;;1.20;0.43;;;34.60;92.50;;;;;;4123143;28;20129;-65
2021/09/06 07:32:25;;;;;;;0.80;0.50;;;34.70;92.30;;;;;;4121843;28;20042;-65
2021/09/06 07:34:35;;;;;;;2.85;0.60;;;34.70;92.30;;;;;;4123898;28;20050;-65
2021/09/06 07:36:40;;;;;;;0.50;0.50;;;34.80;92.20;;;;;;4123396;28;20051;-65
2021/09/06 07:38:44;;;;;;;1.45;0.60;;;34.90;92.20;;;;;;4138472;28;20034;-65
2021/09/06 07:40:49;;;;;;;0.98;0.55;;;34.90;91.80;;;;;;4152999;28;20049;-65
2021/09/06 07:42:54;;;;;;;1.38;0.65;;;34.90;91.20;;;;;;4122297;28;20556;-66
2021/09/06 07:44:59;;;;;;;1.27;0.57;;;34.90;91.00;;;;;;4122807;28;20070;-65
2021/09/06 07:47:04;;;;;;;0.70;0.60;;;35.00;90.60;;;;;;4122263;28;20529;-65
2021/09/06 07:49:09;;;;;;;1.40;0.60;;;35.00;90.60;;;;;;4122539;28;20050;-65
2021/09/06 07:51:13;;;;;;;0.70;0.52;;;35.10;90.40;;;;;;4138794;28;20050;-66
2021/09/06 07:53:19;;;;;;;1.23;0.60;;;35.10;90.90;;;;;;4124421;28;20062;-66
2021/09/06 07:55:24;;;;;;;0.82;0.63;;;35.10;90.30;;;;;;4121153;28;20608;-64
2021/09/06 07:57:29;;;;;;;0.80;0.70;;;35.10;90.10;;;;;;4155175;28;20049;-65
2021/09/06 07:59:33;;;;;;;4.35;0.60;;;35.20;90.10;;;;;;4124855;28;20045;-65
2021/09/06 08:01:39;;;;;;;3.30;0.70;;;35.20;89.30;;;;;;4123540;28;20054;-65
2021/09/06 08:03:44;;;;;;;1.15;0.50;;;35.20;88.80;;;;;;4123102;28;20085;-66
2021/09/06 08:05:49;;;;;;;1.35;0.57;;;35.30;88.50;;;;;;4139756;28;20156;-67
2021/09/06 08:07:54;;;;;;;1.35;0.90;;;35.40;88.30;;;;;;4139304;28;20046;-66
2021/09/06 08:09:58;;;;;;;0.75;0.50;;;35.40;87.60;;;;;;4123570;28;20104;-66
2021/09/06 08:12:03;;;;;;;2.28;0.63;;;35.40;87.30;;;;;;4124559;28;20397;-66
2021/09/06 08:14:07;;;;;;;0.70;0.47;;;35.40;86.50;;;;;;4123575;28;20431;-66
2021/09/06 08:16:12;;;;;;;1.33;0.60;;;35.40;87.50;;;;;;4125155;28;20057;-66
2021/09/06 08:18:18;;;;;;;2.22;0.52;;;35.40;87.40;;;;;;4155874;28;20045;-66
2021/09/06 08:20:27;;;;;;;2.85;1.10;;;35.40;86.90;;;;;;4108069;28;20050;-66
2021/09/06 08:22:33;;;;;;;2.25;0.70;;;35.40;87.20;;;;;;4123569;28;20323;-65
2021/09/06 08:24:41;;;;;;;0.80;0.60;;;35.40;84.80;;;;;;4124305;28;20076;-67
2021/09/06 08:26:45;;;;;;;1.08;0.75;;;35.30;87.90;;;;;;4139721;28;20546;-67
2021/09/06 08:28:49;;;;;;;1.27;0.50;;;35.20;87.30;;;;;;4123292;28;20109;-67
2021/09/06 08:30:56;;;;;;;0.93;0.70;;;35.30;87.30;;;;;;4123922;28;20081;-67
2021/09/06 08:33:02;;;;;;;1.00;0.70;;;35.30;86.10;;;;;;4153304;28;20053;-67
2021/09/06 08:35:09;;;;;;;0.80;0.60;;;35.20;87.00;;;;;;4122913;28;20050;-65
2021/09/06 08:37:16;;;;;;;1.70;0.70;;;35.20;87.80;;;;;;4123524;28;20042;-66
2021/09/06 08:39:21;;;;;;;0.60;0.60;;;35.10;87.40;;;;;;4121239;28;20096;-66
2021/09/06 08:41:27;;;;;;;1.25;0.70;;;35.10;87.80;;;;;;4122319;28;20054;-66
2021/09/06 08:43:32;;;;;;;1.60;0.75;;;35.00;88.40;;;;;;4122094;28;20742;-66
2021/09/06 08:45:42;;;;;;;4.75;0.77;;;34.80;87.30;;;;;;4120407;28;20042;-66
2021/09/06 08:47:46;;;;;;;2.70;0.80;;;34.20;88.50;;;;;;4135811;28;20419;-66
2021/09/06 08:49:54;;;;;;;2.40;0.77;;;33.50;90.50;;;;;;4138452;28;20045;-65
2021/09/06 08:52:00;;;;;;;4.18;1.00;;;32.30;92.30;;;;;;4150019;28;20100;-65
2021/09/06 08:54:08;;;;;;;5.22;0.60;;;31.90;93.20;;;;;;4123111;28;20137;-65
2021/09/06 08:56:15;;;;;;;2.88;0.60;;;31.50;94.50;;;;;;4123088;28;20069;-65
2021/09/06 08:58:40;;;;;;;4.43;0.80;;;31.50;94.70;;;;;;4122535;28;20038;-65
2021/09/06 09:00:47;;;;;;;4.03;0.75;;;31.10;96.10;;;;;;4137807;28;20049;-63
2021/09/06 09:03:11;;;;;;;5.13;1.52;;;31.00;97.60;;;;;;4136594;28;20879;-64
2021/09/06 09:05:31;;;;;;;14.25;4.85;;;31.30;98.20;;;;;;4122941;28;20366;-64
2021/09/06 09:07:58;;;;;;;10.73;2.67;;;31.30;99.90;;;;;;4120665;28;20054;-64
2021/09/06 09:10:26;;;;;;;8.13;2.55;;;30.80;99.90;;;;;;4121566;28;20070;-64
2021/09/06 09:12:47;;;;;;;2.03;0.60;;;30.80;99.90;;;;;;4152589;28;20425;-65
2021/09/06 09:15:04;;;;;;;3.42;0.90;;;30.50;98.80;;;;;;4121327;28;20077;-65
2021/09/06 09:17:28;;;;;;;6.43;1.35;;;30.70;99.60;;;;;;4121103;28;20213;-64
2021/09/06 09:19:53;;;;;;;7.90;2.17;;;30.70;99.90;;;;;;4120905;28;20096;-66
2021/09/06 09:22:18;;;;;;;18.65;1.50;;;30.80;99.90;;;;;;4123201;28;20074;-66
2021/09/06 09:24:42;;;;;;;3.90;1.20;;;30.90;99.90;;;;;;4123091;28;20070;-66
2021/09/06 09:27:06;;;;;;;5.57;1.23;;;30.80;99.90;;;;;;4121685;28;20266;-67
2021/09/06 09:29:28;;;;;;;6.50;1.50;;;30.10;99.90;;;;;;4155137;28;20060;-67
2021/09/06 09:31:49;;;;;;;8.38;1.13;;;30.10;99.90;;;;;;4138811;28;20130;-66
2021/09/06 09:34:13;;;;;;;6.70;1.45;;;30.00;99.90;;;;;;4139054;28;20046;-65
2021/09/06 09:36:34;;;;;;;5.20;1.42;;;30.00;99.90;;;;;;4123421;28;20694;-66
2021/09/06 09:38:41;;;;;;;17.50;2.67;;;30.10;99.90;;;;;;4122212;28;20050;-65
2021/09/06 09:40:47;;;;;;;11.52;2.67;;;30.40;99.90;;;;;;4124639;28;20050;-65
2021/09/06 09:42:52;;;;;;;10.13;3.55;;;30.70;99.90;;;;;;4124789;28;20042;-65
2021/09/06 09:45:04;;;;;;;9.57;3.20;;;30.70;99.90;;;;;;4124229;28;20505;-65
2021/09/06 09:47:29;;;;;;;4.25;1.58;;;30.90;99.90;;;;;;4121953;28;20043;-65
2021/09/06 09:49:34;;;;;;;5.65;1.98;;;30.80;99.90;;;;;;4123981;28;20046;-65
2021/09/06 09:51:39;;;;;;;9.10;2.30;;;30.70;99.90;;;;;;4124380;28;20109;-66
2021/09/06 09:53:45;;;;;;;7.30;1.85;;;30.80;99.90;;;;;;4121520;28;20085;-65
2021/09/06 09:55:50;;;;;;;6.95;2.25;;;30.80;99.90;;;;;;4124856;28;20042;-65
2021/09/06 09:57:55;;;;;;;7.22;2.50;;;30.90;99.90;;;;;;4124374;28;20402;-65
2021/09/06 10:00:00;;;;;;;7.95;2.60;;;31.00;99.90;;;;;;4124186;28;20042;-65
2021/09/06 10:02:15;;;;;;;6.53;2.80;;;31.00;99.90;;;;;;4118639;28;20382;-65
2021/09/06 10:04:23;;;;;;;5.05;2.50;;;31.00;99.90;;;;;;4123083;28;20042;-64
2021/09/06 10:06:30;;;;;;;4.65;2.65;;;30.90;99.90;;;;;;4126260;28;20430;-65
2021/09/06 10:08:35;;;;;;;6.63;2.20;;;31.00;99.90;;;;;;4125273;28;20274;-65
2021/09/06 10:10:41;;;;;;;11.93;1.85;;;31.00;99.90;;;;;;4126647;28;20050;-65
2021/09/06 10:12:47;;;;;;;10.80;2.45;;;31.00;99.90;;;;;;4126603;28;20113;-65
2021/09/06 10:14:57;;;;;;;3.58;1.58;;;31.10;99.90;;;;;;4126877;28;20129;-66
2021/09/06 10:17:03;;;;;;;7.53;1.42;;;31.10;99.90;;;;;;4127289;28;20495;-66
2021/09/06 10:19:10;;;;;;;6.35;1.42;;;31.00;99.90;;;;;;4130445;28;20644;-66
2021/09/06 10:21:17;;;;;;;6.18;1.25;;;31.10;99.90;;;;;;4129711;28;20385;-66
2021/09/06 10:23:25;;;;;;;5.03;1.50;;;31.00;99.90;;;;;;4130828;28;20078;-65
2021/09/06 10:25:35;;;;;;;3.40;1.23;;;31.00;99.90;;;;;;4131269;28;20042;-65
2021/09/06 10:27:58;;;;;;;5.50;1.20;;;30.90;99.90;;;;;;4131590;28;20046;-65
2021/09/06 10:30:11;;;;;;;8.00;2.65;;;30.90;99.90;;;;;;4129770;28;20097;-65
2021/09/06 10:32:16;;;;;;;6.35;3.17;;;30.90;99.90;;;;;;4128006;28;20062;-66
2021/09/06 10:34:22;;;;;;;7.85;2.28;;;30.90;99.90;;;;;;4129865;28;20117;-66
2021/09/06 10:36:30;;;;;;;5.00;2.20;;;31.00;99.90;;;;;;4127906;28;20053;-65
2021/09/06 10:38:44;;;;;;;3.90;2.17;;;31.00;99.90;;;;;;4128858;28;20039;-65
2021/09/06 10:40:49;;;;;;;6.90;2.80;;;30.90;99.90;;;;;;4128650;28;20039;-65
2021/09/06 10:42:55;;;;;;;5.22;2.60;;;30.80;99.90;;;;;;4129789;28;20057;-65
2021/09/06 10:45:01;;;;;;;4.50;2.88;;;30.90;99.90;;;;;;4129970;28;20046;-65
2021/09/06 10:47:09;;;;;;;55.70;43.20;;;30.90;99.90;;;;;;4128377;28;20097;-65
2021/09/06 10:49:14;;;;;;;42.60;35.05;;;30.80;99.90;;;;;;4129478;28;20047;-65
2021/09/06 10:51:32;;;;;;;41.17;35.78;;;30.80;99.90;;;;;;4130198;28;20050;-65
2021/09/06 10:53:38;;;;;;;19.35;12.57;;;30.80;99.90;;;;;;4129311;28;20050;-65
2021/09/06 10:55:52;;;;;;;15.35;10.80;;;30.80;99.90;;;;;;4130005;28;20077;-65
2021/09/06 10:57:59;;;;;;;;;;;30.70;99.90;;;;;;4129778;28;20504;-65
2021/09/06 11:00:05;;;;;;;9.90;5.68;;;30.70;99.90;;;;;;4129689;28;20436;-65
2021/09/06 11:02:13;;;;;;;6.22;4.55;;;30.60;99.90;;;;;;4127885;28;20064;-65
2021/09/06 11:04:20;;;;;;;7.80;3.85;;;30.70;99.90;;;;;;4127665;28;20552;-65